createdAt,value
2018-04-23T00:00:16.440Z,17.80
2018-04-23T00:02:43.886Z,17.80
2018-04-23T00:05:12.858Z,17.70
2018-04-23T00:07:41.320Z,17.70
2018-04-23T00:10:08.782Z,17.60
2018-04-23T00:12:36.259Z,17.60
2018-04-23T00:15:04.468Z,17.60
2018-04-23T00:17:31.910Z,17.50
2018-04-23T00:19:59.361Z,17.40
2018-04-23T00:22:26.847Z,17.30
2018-04-23T00:24:54.290Z,17.20
2018-04-23T00:27:21.995Z,17.20
2018-04-23T00:29:49.429Z,17.20
2018-04-23T00:32:16.857Z,17.20
2018-04-23T00:34:44.314Z,17.20
2018-04-23T00:37:11.764Z,17.10
2018-04-23T00:39:39.230Z,17.10
2018-04-23T00:42:06.686Z,17.10
2018-04-23T00:44:34.139Z,17.10
2018-04-23T00:47:02.369Z,17.00
2018-04-23T00:49:29.826Z,17.00
2018-04-23T00:51:57.253Z,17.00
2018-04-23T00:54:24.693Z,17.00
2018-04-23T00:56:52.154Z,17.10
2018-04-23T00:59:19.595Z,17.10
2018-04-23T01:01:47.055Z,17.00
2018-04-23T01:04:14.522Z,17.00
2018-04-23T01:06:42.080Z,17.00
2018-04-23T01:09:09.538Z,17.00
2018-04-23T01:11:36.994Z,17.00
2018-04-23T01:14:04.442Z,16.90
2018-04-23T01:16:31.957Z,16.80
2018-04-23T01:18:59.405Z,16.80
2018-04-23T01:21:27.634Z,16.60
2018-04-23T01:23:55.091Z,16.60
2018-04-23T01:26:22.560Z,16.60
2018-04-23T01:28:49.997Z,16.70
2018-04-23T01:31:17.464Z,16.70
2018-04-23T01:33:44.943Z,16.70
2018-04-23T01:36:12.423Z,16.60
2018-04-23T01:38:39.855Z,16.60
2018-04-23T01:41:07.335Z,16.50
2018-04-23T01:43:34.793Z,16.40
2018-04-23T01:46:03.003Z,16.30
2018-04-23T01:48:30.474Z,16.30
2018-04-23T01:50:58.352Z,16.30
2018-04-23T01:53:25.802Z,16.30
2018-04-23T01:55:54.017Z,16.40
2018-04-23T01:58:21.456Z,16.30
2018-04-23T02:00:48.898Z,16.40
2018-04-23T02:03:17.356Z,16.50
2018-04-23T02:05:44.825Z,16.60
2018-04-23T02:08:12.944Z,16.50
2018-04-23T02:10:40.398Z,16.50
2018-04-23T02:13:07.858Z,16.60
2018-04-23T02:15:35.312Z,16.50
2018-04-23T02:18:02.769Z,16.60
2018-04-23T02:20:30.223Z,16.60
2018-04-23T02:22:58.436Z,16.70
2018-04-23T02:25:25.895Z,16.70
2018-04-23T02:27:53.353Z,16.60
2018-04-23T02:30:20.811Z,16.60
2018-04-23T02:32:48.267Z,16.70
2018-04-23T02:35:16.481Z,16.70
2018-04-23T02:37:43.935Z,16.60
2018-04-23T02:40:11.367Z,16.70
2018-04-23T02:42:38.831Z,16.70
2018-04-23T02:45:06.271Z,16.70
2018-04-23T02:47:33.787Z,16.70
2018-04-23T02:50:01.226Z,16.80
2018-04-23T02:52:29.497Z,16.80
2018-04-23T02:54:57.037Z,16.80
2018-04-23T02:57:24.501Z,16.80
2018-04-23T02:59:51.961Z,16.90
2018-04-23T03:02:19.411Z,17.00
2018-04-23T03:04:47.632Z,16.80
2018-04-23T03:07:15.095Z,16.70
2018-04-23T03:09:42.539Z,16.70
2018-04-23T03:12:09.996Z,16.70
2018-04-23T03:14:37.454Z,16.60
2018-04-23T03:17:05.683Z,16.70
2018-04-23T03:19:33.148Z,16.70
2018-04-23T03:22:00.591Z,16.60
2018-04-23T03:24:28.834Z,16.40
2018-04-23T03:26:56.290Z,16.40
2018-04-23T03:29:24.499Z,16.40
2018-04-23T03:31:52.048Z,16.30
2018-04-23T03:34:19.502Z,16.40
2018-04-23T03:36:46.990Z,16.50
2018-04-23T03:39:15.220Z,16.70
2018-04-23T03:41:42.798Z,16.70
2018-04-23T03:44:11.034Z,16.80
2018-04-23T03:46:38.507Z,16.80
2018-04-23T03:49:06.723Z,17.00
2018-04-23T03:51:34.181Z,17.00
2018-04-23T03:54:01.639Z,17.00
2018-04-23T03:56:29.101Z,17.10
2018-04-23T03:58:56.534Z,17.20
2018-04-23T04:01:24.773Z,17.30
2018-04-23T04:03:52.225Z,17.30
2018-04-23T04:06:19.678Z,17.40
2018-04-23T04:08:47.158Z,17.40
2018-04-23T04:11:14.641Z,17.40
2018-04-23T04:13:53.891Z,17.40
2018-04-23T04:16:33.927Z,17.40
2018-04-23T04:19:02.154Z,17.40
2018-04-23T04:21:29.620Z,17.30
2018-04-23T04:23:57.094Z,17.30
2018-04-23T04:26:24.546Z,17.30
2018-04-23T04:28:52.843Z,17.20
2018-04-23T04:31:20.287Z,17.10
2018-04-23T04:33:47.746Z,17.00
2018-04-23T04:36:15.210Z,17.00
2018-04-23T04:38:43.506Z,16.90
2018-04-23T04:41:10.942Z,16.90
2018-04-23T04:43:39.230Z,16.90
2018-04-23T04:46:06.670Z,17.00
2018-04-23T04:48:34.123Z,17.10
2018-04-23T04:51:01.595Z,17.20
2018-04-23T04:53:29.052Z,17.30
2018-04-23T04:55:56.499Z,17.40
2018-04-23T04:58:24.736Z,17.50
2018-04-23T05:00:52.455Z,17.50
2018-04-23T05:03:19.907Z,17.50
2018-04-23T05:05:47.364Z,17.40
2018-04-23T05:08:14.863Z,17.30
2018-04-23T05:10:42.325Z,17.20
2018-04-23T05:13:09.782Z,17.20
2018-04-23T05:15:37.240Z,17.20
2018-04-23T05:18:04.728Z,17.10
2018-04-23T05:20:32.188Z,17.00
2018-04-23T05:22:59.660Z,17.00
2018-04-23T05:25:27.121Z,17.00
2018-04-23T05:27:54.577Z,17.10
2018-04-23T05:30:22.091Z,17.20
2018-04-23T05:32:49.669Z,17.20
2018-04-23T05:35:17.884Z,17.50
2018-04-23T05:37:45.373Z,17.50
2018-04-23T05:40:12.799Z,17.60
2018-04-23T05:42:40.254Z,17.70
2018-04-23T05:45:07.678Z,17.80
2018-04-23T05:47:35.127Z,17.90
2018-04-23T05:50:02.623Z,18.00
2018-04-23T05:52:30.060Z,18.20
2018-04-23T05:54:57.529Z,18.20
2018-04-23T05:57:24.967Z,18.30
2018-04-23T05:59:53.263Z,18.50
2018-04-23T06:02:20.716Z,18.50
2018-04-23T06:04:48.171Z,18.70
2018-04-23T06:07:15.649Z,18.80
2018-04-23T06:09:43.091Z,18.90
2018-04-23T06:12:10.543Z,19.10
2018-04-23T06:14:37.987Z,19.30
2018-04-23T06:17:05.448Z,19.40
2018-04-23T06:19:32.905Z,19.50
2018-04-23T06:22:00.345Z,19.60
2018-04-23T06:24:27.817Z,19.70
2018-04-23T06:26:55.326Z,19.90
2018-04-23T06:29:22.802Z,20.20
2018-04-23T06:31:51.023Z,21.00
2018-04-23T06:34:18.565Z,21.00
2018-04-23T06:36:46.019Z,21.50
2018-04-23T06:39:13.486Z,22.10
2018-04-23T06:41:41.746Z,23.00
2018-04-23T06:44:09.972Z,23.30
2018-04-23T06:46:38.002Z,23.30
2018-04-23T06:49:05.502Z,23.40
2018-04-23T06:51:33.028Z,23.40
2018-04-23T06:54:00.516Z,23.40
2018-04-23T06:56:27.984Z,23.40
2018-04-23T06:58:55.458Z,23.40
2018-04-23T07:01:22.895Z,23.50
2018-04-23T07:03:50.355Z,23.50
2018-04-23T07:06:17.809Z,23.70
2018-04-23T07:08:46.066Z,24.30
2018-04-23T07:11:13.491Z,24.30
2018-04-23T07:13:41.745Z,24.60
2018-04-23T07:16:09.201Z,25.00
2018-04-23T07:18:36.659Z,25.20
2018-04-23T07:21:04.867Z,25.30
2018-04-23T07:23:32.301Z,25.30
2018-04-23T07:25:59.758Z,25.50
2018-04-23T07:28:27.199Z,25.70
2018-04-23T07:30:54.639Z,26.00
2018-04-23T07:33:22.079Z,26.30
2018-04-23T07:35:49.546Z,26.50
2018-04-23T07:38:17.010Z,26.50
2018-04-23T07:40:44.491Z,26.70
2018-04-23T07:43:12.745Z,26.60
2018-04-23T07:45:40.204Z,26.60
2018-04-23T07:48:07.654Z,26.60
2018-04-23T07:50:35.108Z,26.50
2018-04-23T07:53:02.584Z,26.40
2018-04-23T07:55:30.026Z,26.30
2018-04-23T07:57:57.577Z,26.20
2018-04-23T08:00:25.017Z,26.10
2018-04-23T08:02:53.260Z,25.80
2018-04-23T08:05:20.722Z,25.80
2018-04-23T08:07:48.169Z,26.00
2018-04-23T08:10:16.397Z,25.80
2018-04-23T08:12:43.854Z,25.70
2018-04-23T08:15:11.323Z,25.70
2018-04-23T08:17:38.775Z,25.60
2018-04-23T08:20:06.242Z,25.50
2018-04-23T08:22:33.695Z,25.40
2018-04-23T08:25:01.147Z,25.60
2018-04-23T08:27:28.614Z,25.60
2018-04-23T08:29:56.068Z,25.60
2018-04-23T08:32:24.284Z,25.30
2018-04-23T08:34:51.764Z,25.30
2018-04-23T08:37:19.250Z,25.20
2018-04-23T08:39:46.711Z,25.40
2018-04-23T08:42:14.165Z,25.40
2018-04-23T08:44:41.624Z,25.60
2018-04-23T08:47:09.082Z,25.50
2018-04-23T08:49:36.559Z,25.50
2018-04-23T08:52:04.006Z,25.60
2018-04-23T08:54:31.472Z,25.70
2018-04-23T08:56:59.535Z,25.60
2018-04-23T08:59:27.562Z,25.70
2018-04-23T09:01:55.007Z,25.60
2018-04-23T09:04:22.459Z,25.60
2018-04-23T09:06:49.961Z,25.60
2018-04-23T09:09:17.436Z,25.50
2018-04-23T09:11:45.638Z,25.70
2018-04-23T09:14:13.104Z,25.70
2018-04-23T09:16:40.543Z,25.70
2018-04-23T09:19:08.002Z,25.80
2018-04-23T09:21:35.450Z,25.80
2018-04-23T09:24:03.684Z,25.70
2018-04-23T09:26:31.140Z,25.70
2018-04-23T09:28:58.606Z,25.60
2018-04-23T09:31:26.088Z,25.40
2018-04-23T09:33:53.548Z,25.40
2018-04-23T09:36:21.017Z,25.50
2018-04-23T09:38:48.454Z,25.40
2018-04-23T09:41:16.011Z,25.40
2018-04-23T09:43:43.471Z,25.50
2018-04-23T09:46:11.660Z,25.60
2018-04-23T09:48:39.177Z,25.60
2018-04-23T09:51:07.646Z,25.40
2018-04-23T09:53:35.093Z,25.30
2018-04-23T09:56:02.532Z,25.30
2018-04-23T09:58:29.984Z,25.50
2018-04-23T10:00:57.487Z,25.80
2018-04-23T10:03:25.706Z,26.10
2018-04-23T10:05:53.412Z,26.10
2018-04-23T10:08:21.776Z,26.30
2018-04-23T10:10:50.466Z,26.80
2018-04-23T10:13:17.942Z,26.70
2018-04-23T10:15:45.419Z,27.00
2018-04-23T10:18:12.902Z,27.30
2018-04-23T10:20:40.371Z,27.30
2018-04-23T10:23:07.814Z,27.30
2018-04-23T10:25:35.290Z,27.30
2018-04-23T10:28:03.553Z,27.10
2018-04-23T10:30:31.837Z,26.90
2018-04-23T10:32:59.294Z,26.80
2018-04-23T10:35:26.738Z,27.00
2018-04-23T10:37:54.210Z,27.20
2018-04-23T10:40:22.458Z,27.20
2018-04-23T10:42:49.942Z,27.20
2018-04-23T10:45:17.403Z,27.20
2018-04-23T10:47:45.623Z,26.90
2018-04-23T10:50:13.188Z,26.90
2018-04-23T10:52:40.678Z,26.90
2018-04-23T10:55:08.149Z,26.80
2018-04-23T10:57:35.598Z,26.80
2018-04-23T11:00:03.055Z,26.70
2018-04-23T11:02:31.325Z,26.80
2018-04-23T11:04:58.814Z,26.80
2018-04-23T11:07:26.952Z,26.90
2018-04-23T11:09:54.429Z,27.00
2018-04-23T11:12:21.884Z,27.10
2018-04-23T11:14:49.344Z,27.10
2018-04-23T11:17:16.799Z,26.90
2018-04-23T11:19:44.255Z,26.70
2018-04-23T11:22:11.714Z,26.50
2018-04-23T11:24:39.172Z,26.50
2018-04-23T11:27:07.395Z,26.50
2018-04-23T11:29:34.851Z,26.50
2018-04-23T11:32:03.201Z,26.30
2018-04-23T11:34:30.658Z,26.30
2018-04-23T11:36:58.114Z,26.20
2018-04-23T11:39:25.576Z,26.10
2018-04-23T11:41:53.139Z,26.00
2018-04-23T11:44:20.633Z,26.00
2018-04-23T11:46:48.852Z,26.10
2018-04-23T11:49:16.311Z,26.10
2018-04-23T11:51:43.761Z,26.10
2018-04-23T11:54:11.233Z,25.90
2018-04-23T11:56:38.679Z,25.70
2018-04-23T11:59:06.159Z,25.60
2018-04-23T12:01:33.636Z,25.50
2018-04-23T12:04:01.108Z,25.40
2018-04-23T12:06:28.579Z,25.30
2018-04-23T12:08:56.555Z,25.20
2018-04-23T12:11:24.030Z,25.00
2018-04-23T12:13:51.483Z,24.90
2018-04-23T12:16:20.343Z,24.90
2018-04-23T12:18:47.792Z,24.90
2018-04-23T12:21:15.264Z,24.80
2018-04-23T12:23:42.732Z,24.90
2018-04-23T12:26:10.175Z,24.80
2018-04-23T12:28:39.754Z,24.80
2018-04-23T12:31:07.220Z,24.90
2018-04-23T12:33:34.675Z,25.10
2018-04-23T12:36:02.157Z,25.10
2018-04-23T12:38:30.384Z,25.20
2018-04-23T12:40:58.500Z,25.20
2018-04-23T12:43:25.959Z,25.20
2018-04-23T12:45:53.448Z,25.00
2018-04-23T12:48:20.873Z,25.00
2018-04-23T12:50:48.325Z,24.80
2018-04-23T12:53:15.896Z,24.70
2018-04-23T12:55:44.110Z,24.30
2018-04-23T12:58:11.565Z,24.30
2018-04-23T13:00:39.022Z,24.00
2018-04-23T13:03:06.447Z,23.80
2018-04-23T13:05:33.894Z,23.60
2018-04-23T13:08:01.351Z,23.30
2018-04-23T13:10:28.804Z,23.00
2018-04-23T13:12:57.075Z,22.60
2018-04-23T13:15:25.314Z,22.50
2018-04-23T13:17:52.762Z,22.40
2018-04-23T13:20:20.219Z,22.20
2018-04-23T13:22:48.436Z,21.80
2018-04-23T13:25:15.883Z,21.80
2018-04-23T13:27:43.374Z,21.40
2018-04-23T13:30:11.610Z,21.10
2018-04-23T13:32:39.067Z,21.10
2018-04-23T13:35:07.290Z,20.80
2018-04-23T13:37:34.765Z,20.80
2018-04-23T13:40:03.004Z,20.90
2018-04-23T13:42:30.491Z,20.90
2018-04-23T13:44:58.055Z,21.00
2018-04-23T13:47:25.588Z,20.90
2018-04-23T13:49:53.067Z,21.00
2018-04-23T13:52:20.558Z,21.00
2018-04-23T13:54:48.822Z,21.20
2018-04-23T13:57:17.053Z,21.20
2018-04-23T13:59:44.507Z,21.10
2018-04-23T14:02:11.980Z,21.20
2018-04-23T14:04:39.502Z,21.20
2018-04-23T14:07:07.731Z,21.30
2018-04-23T14:09:35.188Z,21.30
2018-04-23T14:12:02.654Z,21.40
2018-04-23T14:14:30.853Z,21.60
2018-04-23T14:16:58.327Z,21.60
2018-04-23T14:19:25.778Z,21.60
2018-04-23T14:21:53.227Z,21.70
2018-04-23T14:24:20.673Z,21.60
2018-04-23T14:26:48.132Z,21.60
2018-04-23T14:29:15.711Z,21.50
2018-04-23T14:31:43.152Z,21.40
2018-04-23T14:34:10.602Z,21.40
2018-04-23T14:36:38.166Z,21.30
2018-04-23T14:39:06.539Z,21.20
2018-04-23T14:41:34.014Z,21.20
2018-04-23T14:44:01.458Z,21.20
2018-04-23T14:46:28.915Z,21.20
2018-04-23T14:48:57.168Z,20.80
2018-04-23T14:51:25.386Z,20.70
2018-04-23T14:53:52.823Z,20.70
2018-04-23T14:56:20.273Z,20.60
2018-04-23T14:58:47.736Z,20.60
2018-04-23T15:01:15.179Z,20.40
2018-04-23T15:03:42.633Z,20.20
2018-04-23T15:06:10.851Z,19.90
2018-04-23T15:08:38.292Z,19.90
2018-04-23T15:11:05.801Z,19.70
2018-04-23T15:13:33.267Z,19.70
2018-04-23T15:16:00.755Z,19.50
2018-04-23T15:18:28.218Z,19.40
2018-04-23T15:20:57.847Z,19.20
2018-04-23T15:23:26.318Z,19.10
2018-04-23T15:25:53.867Z,19.10
2018-04-23T15:28:21.330Z,19.10
2018-04-23T15:30:48.778Z,18.80
2018-04-23T15:33:16.229Z,18.70
2018-04-23T15:35:43.679Z,18.70
2018-04-23T15:38:11.931Z,18.70
2018-04-23T15:40:39.415Z,18.70
2018-04-23T15:43:06.874Z,18.60
2018-04-23T15:45:34.328Z,18.70
2018-04-23T15:48:01.799Z,18.70
2018-04-23T15:50:29.309Z,18.70
2018-04-23T15:52:56.771Z,18.60
2018-04-23T15:55:24.990Z,18.60
2018-04-23T15:57:52.436Z,18.60
2018-04-23T16:00:19.911Z,18.70
2018-04-23T16:02:47.348Z,18.80
2018-04-23T16:05:14.824Z,18.90
2018-04-23T16:07:42.279Z,18.70
2018-04-23T16:10:09.739Z,18.80
2018-04-23T16:12:37.347Z,18.90
2018-04-23T16:15:04.812Z,18.90
2018-04-23T16:17:32.267Z,19.00
2018-04-23T16:20:00.490Z,19.10
2018-04-23T16:22:27.947Z,19.10
2018-04-23T16:24:55.390Z,19.30
2018-04-23T16:27:22.916Z,19.40
2018-04-23T16:29:50.371Z,19.30
2018-04-23T16:32:17.915Z,19.30
2018-04-23T16:34:45.415Z,19.30
2018-04-23T16:37:12.899Z,19.30
2018-04-23T16:39:40.342Z,19.30
2018-04-23T16:42:07.802Z,19.30
2018-04-23T16:44:39.416Z,19.30
2018-04-23T16:47:02.715Z,19.40
2018-04-23T16:49:30.267Z,19.50
2018-04-23T16:51:57.727Z,19.50
2018-04-23T16:54:25.224Z,19.50
2018-04-23T16:56:52.681Z,19.50
2018-04-23T16:59:21.544Z,19.40
2018-04-23T17:01:49.062Z,19.40
2018-04-23T17:04:16.514Z,19.40
2018-04-23T17:06:43.975Z,19.30
2018-04-23T17:09:12.186Z,19.40
2018-04-23T17:11:39.638Z,19.40
2018-04-23T17:14:07.171Z,19.40
2018-04-23T17:16:34.638Z,19.40
2018-04-23T17:19:02.084Z,19.40
2018-04-23T17:21:30.425Z,19.20
2018-04-23T17:23:57.947Z,19.00
2018-04-23T17:26:25.397Z,19.00
2018-04-23T17:28:52.883Z,19.00
2018-04-23T17:31:21.068Z,19.00
2018-04-23T17:33:49.309Z,19.00
2018-04-23T17:36:16.880Z,18.90
2018-04-23T17:38:44.315Z,19.00
2018-04-23T17:41:11.781Z,18.90
2018-04-23T17:43:40.575Z,19.00
2018-04-23T17:46:08.018Z,19.00
2018-04-23T17:48:35.490Z,19.00
2018-04-23T17:51:02.946Z,18.90
2018-04-23T17:53:30.435Z,18.90
2018-04-23T17:55:57.925Z,18.80
2018-04-23T17:58:25.370Z,18.70
2018-04-23T18:00:52.840Z,18.70
2018-04-23T18:03:20.293Z,18.70
2018-04-23T18:05:48.514Z,18.70
2018-04-23T18:08:16.844Z,18.70
2018-04-23T18:10:44.287Z,18.60
2018-04-23T18:13:11.854Z,18.60
2018-04-23T18:15:40.173Z,18.60
2018-04-23T18:18:08.452Z,18.60
2018-04-23T18:20:36.657Z,18.60
2018-04-23T18:23:04.169Z,18.60
2018-04-23T18:25:31.619Z,18.50
2018-04-23T18:27:59.075Z,18.50
2018-04-23T18:30:26.531Z,18.40
2018-04-23T18:32:54.016Z,18.40
2018-04-23T18:35:21.474Z,18.30
2018-04-23T18:37:48.975Z,18.30
2018-04-23T18:40:16.457Z,18.30
2018-04-23T18:42:43.912Z,18.20
2018-04-23T18:45:11.410Z,18.20
2018-04-23T18:47:38.855Z,18.20
2018-04-23T18:50:07.083Z,18.10
2018-04-23T18:52:34.537Z,18.10
2018-04-23T18:55:03.371Z,18.10
2018-04-23T18:57:30.986Z,18.00
2018-04-23T18:59:59.221Z,17.90
2018-04-23T19:02:26.678Z,17.90
2018-04-23T19:04:54.179Z,17.90
2018-04-23T19:07:21.634Z,17.90
2018-04-23T19:09:50.008Z,17.90
2018-04-23T19:12:18.208Z,17.90
2018-04-23T19:14:46.443Z,17.80
2018-04-23T19:17:13.908Z,17.80
2018-04-23T19:19:42.121Z,17.70
2018-04-23T19:22:09.558Z,17.70
2018-04-23T19:24:37.027Z,17.70
2018-04-23T19:27:04.489Z,17.80
2018-04-23T19:29:31.950Z,17.70
2018-04-23T19:31:59.395Z,17.70
2018-04-23T19:34:26.852Z,17.60
2018-04-23T19:36:54.368Z,17.40
2018-04-23T19:39:22.167Z,17.40
2018-04-23T19:41:49.618Z,17.30
2018-04-23T19:44:17.501Z,17.20
2018-04-23T19:46:44.981Z,17.20
2018-04-23T19:49:12.439Z,17.00
2018-04-23T19:51:40.001Z,17.00
2018-04-23T19:54:07.469Z,17.00
2018-04-23T19:56:34.913Z,17.10
2018-04-23T19:59:02.368Z,17.00
2018-04-23T20:01:30.601Z,17.10
2018-04-23T20:03:58.039Z,17.10
2018-04-23T20:06:25.507Z,17.20
2018-04-23T20:08:53.057Z,17.20
2018-04-23T20:11:20.535Z,17.10
2018-04-23T20:13:48.014Z,17.20
2018-04-23T20:16:16.308Z,17.10
2018-04-23T20:18:43.769Z,17.00
2018-04-23T20:21:11.223Z,17.00
2018-04-23T20:23:39.455Z,17.00
2018-04-23T20:26:06.994Z,17.10
2018-04-23T20:28:35.333Z,17.10
2018-04-23T20:31:02.796Z,17.00
2018-04-23T20:33:30.330Z,17.10
2018-04-23T20:35:57.770Z,17.10
2018-04-23T20:38:25.252Z,17.10
2018-04-23T20:40:53.643Z,17.10
2018-04-23T20:43:21.175Z,17.20
2018-04-23T20:45:48.643Z,17.10
2018-04-23T20:48:16.123Z,17.00
2018-04-23T20:50:43.647Z,17.00
2018-04-23T20:53:11.103Z,17.00
2018-04-23T20:55:38.574Z,16.90
2018-04-23T20:58:06.804Z,16.70
2018-04-23T21:00:34.271Z,16.70
2018-04-23T21:03:02.493Z,16.70
2018-04-23T21:05:30.061Z,16.70
2018-04-23T21:07:57.550Z,16.70
2018-04-23T21:10:24.991Z,16.70
2018-04-23T21:12:52.426Z,16.70
2018-04-23T21:15:19.883Z,16.80
2018-04-23T21:17:47.368Z,16.80
2018-04-23T21:20:14.829Z,16.70
2018-04-23T21:22:42.266Z,16.60
2018-04-23T21:25:09.736Z,16.70
2018-04-23T21:27:37.217Z,16.60
2018-04-23T21:30:04.705Z,16.60
2018-04-23T21:32:32.172Z,16.60
2018-04-23T21:34:59.630Z,16.60
2018-04-23T21:37:27.066Z,16.60
2018-04-23T21:39:54.519Z,16.60
2018-04-23T21:42:21.976Z,16.60
2018-04-23T21:44:49.430Z,16.60
2018-04-23T21:47:16.893Z,16.50
2018-04-23T21:49:44.463Z,16.50
2018-04-23T21:52:12.006Z,16.50
2018-04-23T21:54:40.221Z,16.40
2018-04-23T21:57:07.701Z,16.40
2018-04-23T21:59:35.939Z,16.40
2018-04-23T22:02:03.433Z,16.40
2018-04-23T22:04:31.000Z,16.50
2018-04-23T22:06:58.462Z,16.50
2018-04-23T22:09:25.919Z,16.50
2018-04-23T22:11:54.182Z,16.50
2018-04-23T22:14:21.642Z,16.30
2018-04-23T22:16:49.920Z,16.20
2018-04-23T22:19:17.347Z,16.20
2018-04-23T22:21:44.827Z,16.20
2018-04-23T22:24:12.261Z,16.10
2018-04-23T22:26:39.741Z,16.10
2018-04-23T22:29:08.003Z,16.10
2018-04-23T22:31:35.487Z,16.00
2018-04-23T22:34:02.922Z,16.00
2018-04-23T22:36:30.385Z,16.00
2018-04-23T22:38:57.849Z,15.90
2018-04-23T22:41:25.306Z,15.90
2018-04-23T22:43:52.758Z,15.90
2018-04-23T22:46:20.359Z,16.00
2018-04-23T22:48:48.595Z,15.90
2018-04-23T22:51:16.051Z,15.90
2018-04-23T22:53:43.527Z,15.90
2018-04-23T22:56:11.795Z,15.80
2018-04-23T22:58:40.124Z,15.70
2018-04-23T23:01:08.355Z,15.70
2018-04-23T23:03:35.797Z,15.70
2018-04-23T23:06:03.302Z,15.70
2018-04-23T23:08:31.960Z,15.70
2018-04-23T23:10:59.643Z,15.70
2018-04-23T23:13:27.091Z,15.80
2018-04-23T23:15:55.320Z,15.80
2018-04-23T23:18:22.783Z,15.80
2018-04-23T23:20:50.252Z,15.90
2018-04-23T23:23:17.696Z,15.90
2018-04-23T23:25:45.166Z,15.90
2018-04-23T23:28:13.374Z,15.90
2018-04-23T23:30:40.888Z,15.90
2018-04-23T23:33:10.043Z,15.90
2018-04-23T23:35:37.502Z,16.00
2018-04-23T23:38:05.714Z,16.00
2018-04-23T23:40:33.187Z,16.00
2018-04-23T23:43:00.639Z,16.00
2018-04-23T23:45:28.854Z,16.20
2018-04-23T23:47:56.295Z,16.10
2018-04-23T23:50:23.734Z,16.20
2018-04-23T23:52:51.196Z,16.20
2018-04-23T23:55:18.646Z,16.20
2018-04-23T23:57:46.094Z,16.20
